Latest Coastal Weather Observations for Dum In Mirrie

IDD60701

Issued at 1:55 pm CST Sunday 26 October 2014 (issued every 10 minutes, with the page automatically refreshed every 10 minutes)

About coastal observations | Map of coastal stations | Coastal observations for NT | Marine services | Other Formats
Station Details ID: 014277 Name: DUM IN MIRRIE AIRSTRIP Lat: -12.63 Lon: 130.37 Height: 3.5 m
Data from the previous 72 hours. | See also: Recent months at Dum In Mirrie
Date/Time
CST
Temp

°C
Wind Pressure Rain
since 9am
mm
Weather Cloud Vis
km
Sea
Height
m
Swell
Dir
 
Speed
knots
Gust
knots
hPa Trend Height
m
Period
s
Dir
26/01:30pm 32.0 WNW 6 11 1011.3 - 0.0 - - - - - - -
26/01:00pm 32.1 WNW 6 11 1012.1 - 0.0 - - - - - - -
26/12:30pm 31.4 WNW 6 10 1012.6 - 0.0 - - - - - - -
26/12:00pm 31.1 WNW 5 10 1013.0 - 0.0 - - - - - - -
26/11:30am 29.8 WNW 4 7 1013.6 - 0.0 - - - - - - -
26/11:00am 29.5 WNW 5 8 1014.1 - 0.0 - - - - - - -
26/10:30am 29.9 WNW 4 6 1014.5 - 0.0 - - - - - - -
26/10:00am 28.8 WNW 3 5 1014.7 - 0.0 - - - - - - -
26/09:30am 29.3 NW 2 6 1014.7 - 0.0 - - - - - - -
26/09:00am 30.7 NW 3 5 1014.7 - 0.0 - - - - - - -
26/08:30am 29.4 N 3 5 1014.6 - 0.0 - - - - - - -
26/08:00am 28.7 N 2 4 1014.2 - 0.0 - - - - - - -
26/07:30am 28.1 CALM 0 0 1013.9 - 0.0 - - - - - - -
26/07:00am 25.9 NE 1 3 1013.6 - 0.0 - - - - - - -
26/06:30am 24.9 CALM 0 0 1013.4 - 0.0 - - - - - - -
26/06:00am 26.2 CALM 0 0 1013.0 - 0.0 - - - - - - -
26/05:30am 27.1 N 2 4 1012.7 - 0.0 - - - - - - -
26/05:00am 27.1 NNE 2 5 1012.7 - 0.0 - - - - - - -
26/04:30am 27.0 NNE 4 7 1012.6 - 0.0 - - - - - - -
26/04:00am 27.1 NE 5 8 1012.7 - 0.0 - - - - - - -
26/03:30am 27.3 NNE 3 6 1012.6 - 0.0 - - - - - - -
26/03:00am 27.2 N 3 6 1012.5 - 0.0 - - - - - - -
26/02:30am 27.6 N 3 6 1012.7 - 0.0 - - - - - - -
26/02:00am 27.5 N 3 5 1012.9 - 0.0 - - - - - - -
26/01:30am 27.9 N 4 8 1012.9 - 0.0 - - - - - - -
26/01:00am 27.9 NNW 5 9 1013.0 - 0.0 - - - - - - -
26/12:30am 28.1 NNW 4 9 1013.2 - 0.0 - - - - - - -
26/12:00am 28.1 NNW 4 8 1013.3 - 0.0 - - - - - - -
 
Date/Time
CST
Temp

°C
Wind Pressure Rain
since 9am
mm
Weather Cloud Vis
km
Sea
Height
m
Swell
Dir
 
Speed
knots
Gust
knots
hPa Trend Height
m
Period
s
Dir
25/11:30pm 27.0 NNW 2 4 1013.6 - 0.0 - - - - - - -
25/11:00pm 27.9 NW 2 3 1013.8 - 0.0 - - - - - - -
25/10:30pm 28.3 NNW 3 4 1013.6 - 0.0 - - - - - - -
25/10:00pm 28.5 NW 3 5 1013.4 - 0.0 - - - - - - -
25/09:30pm 28.7 W 3 5 1013.0 - 0.0 - - - - - - -
25/09:00pm 29.0 WSW 4 7 1012.9 - 0.0 - - - - - - -
25/08:30pm 29.1 SW 5 9 1012.4 - 0.0 - - - - - - -
25/08:00pm 29.0 SW 6 8 1012.0 - 0.0 - - - - - - -
25/07:30pm 28.9 W 4 7 1011.8 - 0.0 - - - - - - -
25/07:00pm 28.8 W 2 5 1011.6 - 0.0 - - - - - - -
25/06:30pm 29.3 WNW 3 5 1011.3 - 0.0 - - - - - - -
25/06:00pm 30.3 W 3 5 1011.1 - 0.0 - - - - - - -
25/05:30pm 30.7 NW 4 6 1011.0 - 0.0 - - - - - - -
25/05:00pm 30.9 WNW 5 8 1010.8 - 0.0 - - - - - - -
25/04:30pm 31.1 NW 5 8 1010.8 - 0.0 - - - - - - -
25/04:00pm 31.4 WNW 5 10 1011.1 - 0.0 - - - - - - -
25/03:30pm 31.2 NW 6 10 1011.3 - 0.0 - - - - - - -
25/03:00pm 31.7 NW 7 13 1011.6 - 0.0 - - - - - - -
25/02:30pm 31.3 NNW 7 12 1011.6 - 0.0 - - - - - - -
25/02:00pm 32.4 NNW 6 12 1011.8 - 0.0 - - - - - - -
25/01:30pm 31.9 NW 8 13 1012.1 - 0.0 - - - - - - -
25/01:00pm 31.4 NNW 6 11 1012.5 - 0.0 - - - - - - -
25/12:30pm 31.4 NNW 7 12 1013.1 - 0.0 - - - - - - -
25/12:00pm 32.5 N 7 12 1013.5 - 0.0 - - - - - - -
25/11:30am 32.7 ENE 6 12 1014.0 - 0.0 - - - - - - -
25/11:00am 32.5 NE 5 10 1014.4 - 0.0 - - - - - - -
25/10:30am 31.1 NNE 4 8 1014.9 - 0.0 - - - - - - -
25/10:00am 30.7 ENE 5 9 1015.2 - 0.0 - - - - - - -
25/09:30am 30.8 E 5 9 1015.3 - 0.0 - - - - - - -
25/09:00am 29.7 E 6 9 1015.4 - 0.0 - - - - - - -
25/08:30am 29.5 E 7 10 1015.4 - 0.0 - - - - - - -
25/08:00am 29.1 E 6 8 1015.2 - 0.0 - - - - - - -
25/07:30am 28.5 ENE 3 6 1014.9 - 0.0 - - - - - - -
25/07:00am 27.1 E 4 7 1014.6 - 0.0 - - - - - - -
25/06:30am 25.8 NE 1 2 1014.1 - 0.0 - - - - - - -
25/06:00am 26.2 NNE 3 5 1013.7 - 0.0 - - - - - - -
25/05:30am 26.4 NNE 3 5 1013.4 - 0.0 - - - - - - -
25/05:00am 26.4 NNE 3 5 1013.1 - 0.0 - - - - - - -
25/04:30am 26.5 N 3 4 1012.9 - 0.0 - - - - - - -
25/04:00am 26.4 NNE 2 4 1012.6 - 0.0 - - - - - - -
25/03:30am 27.1 NE 2 4 1012.5 - 0.0 - - - - - - -
25/03:00am 27.0 NNE 4 6 1012.4 - 0.0 - - - - - - -
25/02:30am 27.2 N 4 7 1012.4 - 0.0 - - - - - - -
25/02:00am 27.4 N 2 4 1012.6 - 0.0 - - - - - - -
25/01:30am 27.8 N 5 9 1012.7 - 0.0 - - - - - - -
25/01:00am 28.1 NNW 3 7 1013.0 - 0.0 - - - - - - -
25/12:30am 28.1 NW 4 6 1013.0 - 0.0 - - - - - - -
25/12:00am 28.0 NW 3 7 1012.9 - 0.0 - - - - - - -
 
Date/Time
CST
Temp

°C
Wind Pressure Rain
since 9am
mm
Weather Cloud Vis
km
Sea
Height
m
Swell
Dir
 
Speed
knots
Gust
knots
hPa Trend Height
m
Period
s
Dir
24/11:30pm 28.2 WNW 3 6 1013.0 - 0.0 - - - - - - -
24/11:00pm 28.4 NW 5 8 1013.2 - 0.0 - - - - - - -
24/10:30pm 28.6 NW 5 10 1012.9 - 0.0 - - - - - - -
24/10:00pm 28.7 WNW 5 9 1012.7 - 0.0 - - - - - - -
24/09:30pm 28.8 W 5 8 1012.1 - 0.0 - - - - - - -
24/09:00pm 29.0 W 4 8 1011.9 - 0.0 - - - - - - -
24/08:30pm 28.9 W 5 10 1011.3 - 0.0 - - - - - - -
24/08:00pm 26.9 CALM 0 3 1010.8 - 0.0 - - - - - - -
24/07:30pm 28.7 ENE 1 2 1010.4 - 0.0 - - - - - - -
24/07:00pm 29.8 CALM 0 2 1010.1 - 0.0 - - - - - - -
24/06:30pm 30.6 NNE 4 6 1009.9 - 0.0 - - - - - - -
24/06:00pm 31.3 NNE 5 8 1009.9 - 0.0 - - - - - - -
24/05:30pm 31.6 N 5 8 1009.8 - 0.0 - - - - - - -
24/05:00pm 31.6 N 5 8 1009.7 - 0.0 - - - - - - -
24/04:30pm 32.1 N 5 9 1010.0 - 0.0 - - - - - - -
24/04:00pm 31.4 N 7 11 1010.0 - 0.0 - - - - - - -
24/03:30pm 31.4 NNW 5 9 1010.2 - 0.0 - - - - - - -
24/03:00pm 31.9 N 7 12 1010.2 - 0.0 - - - - - - -
24/02:30pm 32.4 N 8 13 1010.0 - 0.0 - - - - - - -
24/02:00pm 32.3 N 9 14 1010.1 - 0.0 - - - - - - -
24/01:30pm 31.9 N 9 16 1010.3 - 0.0 - - - - - - -
24/01:00pm 32.6 N 9 14 1011.0 - 0.0 - - - - - - -
24/12:30pm 31.8 N 8 12 1011.6 - 0.0 - - - - - - -
24/12:00pm 31.9 N 8 14 1012.3 - 0.0 - - - - - - -
24/11:30am 32.7 NE 7 12 1012.8 - 0.0 - - - - - - -
24/11:00am 32.3 E 5 10 1013.3 - 0.0 - - - - - - -
24/10:30am 31.3 ENE 4 9 1013.8 - 0.0 - - - - - - -
24/10:00am 30.7 ENE 4 9 1014.2 - 0.0 - - - - - - -
24/09:30am 30.8 ENE 4 8 1014.1 - 0.0 - - - - - - -
24/09:00am 29.9 NNE 4 7 1014.0 - 0.0 - - - - - - -
24/08:30am 29.7 NNE 4 7 1013.9 - 0.0 - - - - - - -
24/08:00am 29.2 NNE 4 6 1013.6 - 0.0 - - - - - - -
24/07:30am 28.1 NE 2 3 1013.3 - 0.0 - - - - - - -
24/07:00am 25.8 NNE 2 4 1013.2 - 0.0 - - - - - - -
24/06:30am 24.3 NNE 2 3 1013.2 - 0.0 - - - - - - -
24/06:00am 24.1 NNE 1 3 1012.8 - 0.0 - - - - - - -
24/05:30am 24.1 NNE 2 4 1012.5 - 0.0 - - - - - - -
24/05:00am 23.9 NNE 2 3 1012.4 - 0.0 - - - - - - -
24/04:30am 25.0 NE 1 3 1012.5 - 0.0 - - - - - - -
24/04:00am 26.0 NNE 2 2 1012.2 - 0.0 - - - - - - -
24/03:30am 26.8 NE 2 3 1012.1 - 0.0 - - - - - - -
24/03:00am 27.4 N 3 5 1012.3 - 0.0 - - - - - - -
24/02:30am 27.3 N 2 4 1012.4 - 0.0 - - - - - - -
24/02:00am 27.4 NNW 3 5 1012.6 - 0.0 - - - - - - -
24/01:30am 27.6 N 3 5 1013.0 - 0.0 - - - - - - -
24/01:00am 27.8 NNW 4 6 1012.9 - 0.0 - - - - - - -
24/12:30am 27.7 NNW 3 6 1013.1 - 0.0 - - - - - - -
24/12:00am 27.5 NNW 2 4 1013.4 - 0.0 - - - - - - -
 
Date/Time
CST
Temp

°C
Wind Pressure Rain
since 9am
mm
Weather Cloud Vis
km
Sea
Height
m
Swell
Dir
 
Speed
knots
Gust
knots
hPa Trend Height
m
Period
s
Dir
23/11:30pm 27.8 NNW 3 5 1013.5 - 0.0 - - - - - - -
23/11:00pm 28.1 NW 3 6 1013.4 - 0.0 - - - - - - -
23/10:30pm 28.4 WNW 3 5 1013.0 - 0.0 - - - - - - -
23/10:00pm 28.7 W 4 8 1012.7 - 0.0 - - - - - - -
23/09:30pm 28.8 WSW 3 8 1012.1 - 0.0 - - - - - - -
23/09:00pm 28.8 WSW 3 6 1011.7 - 0.0 - - - - - - -
23/08:30pm 28.6 SW 2 5 1011.3 - 0.0 - - - - - - -
23/08:00pm 27.6 WSW 2 4 1011.1 - 0.0 - - - - - - -
23/07:30pm 26.8 CALM 0 2 1010.8 - 0.0 - - - - - - -
23/07:00pm 28.5 CALM 0 0 1010.6 - 0.0 - - - - - - -
23/06:30pm 29.6 NW 2 4 1010.3 - 0.0 - - - - - - -
23/06:00pm 30.5 WNW 3 5 1010.1 - 0.0 - - - - - - -
23/05:30pm 31.0 NW 3 5 1009.8 - 0.0 - - - - - - -
23/05:00pm 31.6 NNW 5 8 1009.5 - 0.0 - - - - - - -
23/04:30pm 31.5 NW 6 10 1009.6 - 0.0 - - - - - - -
23/04:00pm 31.4 NW 6 10 1009.9 - 0.0 - - - - - - -
23/03:30pm 32.0 NW 6 10 1010.1 - 0.0 - - - - - - -
23/03:00pm 31.4 NNW 7 14 1010.1 - 0.0 - - - - - - -
23/02:30pm 31.6 NNW 8 14 1010.4 - 0.0 - - - - - - -
23/02:00pm 31.8 N 9 16 1010.6 - 0.0 - - - - - - -

Other Formats:

Comma delimited format used in spreadsheet applications
http://www.bom.gov.au/fwo/IDD60701/IDD60701.94116.axf

JavaScript Object Notation format (JSON) in row-major order
http://www.bom.gov.au/fwo/IDD60701/IDD60701.94116.json